sensor_id;sensor_type;location;lat;lon;timestamp;pressure;altitude;pressure_sealevel;temperature;humidity
52653;BME280;39353;42.864;12.014;2023-07-31T00:01:47;97315.23;;;27.15;39.85
52653;BME280;39353;42.864;12.014;2023-07-31T00:04:14;97310.55;;;27.17;39.68
52653;BME280;39353;42.864;12.014;2023-07-31T00:06:41;97308.18;;;27.18;39.53
52653;BME280;39353;42.864;12.014;2023-07-31T00:09:07;97310.17;;;27.19;39.50
52653;BME280;39353;42.864;12.014;2023-07-31T00:11:48;97309.41;;;27.21;39.66
52653;BME280;39353;42.864;12.014;2023-07-31T00:14:30;97307.54;;;27.22;39.92
52653;BME280;39353;42.864;12.014;2023-07-31T00:16:57;97311.55;;;27.23;40.09
52653;BME280;39353;42.864;12.014;2023-07-31T00:19:25;97309.90;;;27.21;40.03
52653;BME280;39353;42.864;12.014;2023-07-31T00:21:52;97310.00;;;27.19;40.10
52653;BME280;39353;42.864;12.014;2023-07-31T00:24:32;97307.74;;;27.17;40.19
52653;BME280;39353;42.864;12.014;2023-07-31T00:26:59;97307.64;;;27.20;40.31
52653;BME280;39353;42.864;12.014;2023-07-31T00:29:27;97310.48;;;27.17;40.20
52653;BME280;39353;42.864;12.014;2023-07-31T00:31:56;97307.91;;;27.14;40.52
52653;BME280;39353;42.864;12.014;2023-07-31T00:34:37;97308.08;;;27.14;40.66
52653;BME280;39353;42.864;12.014;2023-07-31T00:37:04;97315.80;;;27.14;40.68
52653;BME280;39353;42.864;12.014;2023-07-31T00:39:34;97309.06;;;27.12;40.77
52653;BME280;39353;42.864;12.014;2023-07-31T00:42:02;97312.85;;;27.09;40.99
52653;BME280;39353;42.864;12.014;2023-07-31T00:44:43;97310.42;;;27.07;40.82
52653;BME280;39353;42.864;12.014;2023-07-31T00:47:25;97315.16;;;27.05;40.89
52653;BME280;39353;42.864;12.014;2023-07-31T00:49:53;97312.34;;;27.03;41.04
52653;BME280;39353;42.864;12.014;2023-07-31T00:52:35;97309.41;;;27.00;41.02
52653;BME280;39353;42.864;12.014;2023-07-31T00:55:05;97307.59;;;26.95;41.20
52653;BME280;39353;42.864;12.014;2023-07-31T00:57:36;97303.01;;;26.92;41.25
52653;BME280;39353;42.864;12.014;2023-07-31T01:00:17;97297.59;;;26.87;41.18
52653;BME280;39353;42.864;12.014;2023-07-31T01:02:44;97298.64;;;26.85;41.21
52653;BME280;39353;42.864;12.014;2023-07-31T01:11:22;97290.75;;;26.82;41.09
52653;BME280;39353;42.864;12.014;2023-07-31T01:13:54;97290.63;;;26.80;41.18
52653;BME280;39353;42.864;12.014;2023-07-31T01:16:22;97287.22;;;26.81;41.29
52653;BME280;39353;42.864;12.014;2023-07-31T01:19:07;97288.40;;;26.84;41.23
52653;BME280;39353;42.864;12.014;2023-07-31T01:27:14;97278.38;;;26.76;41.01
52653;BME280;39353;42.864;12.014;2023-07-31T01:30:15;97278.38;;;26.78;41.05
52653;BME280;39353;42.864;12.014;2023-07-31T01:32:47;97279.98;;;26.86;41.28
52653;BME280;39353;42.864;12.014;2023-07-31T01:35:16;97283.35;;;26.93;41.45
52653;BME280;39353;42.864;12.014;2023-07-31T01:37:45;97281.27;;;27.01;41.31
52653;BME280;39353;42.864;12.014;2023-07-31T01:40:12;97275.23;;;27.01;40.66
52653;BME280;39353;42.864;12.014;2023-07-31T01:42:39;97275.77;;;26.97;40.44
52653;BME280;39353;42.864;12.014;2023-07-31T01:45:20;97273.88;;;26.92;40.38
52653;BME280;39353;42.864;12.014;2023-07-31T01:48:02;97275.73;;;26.90;40.51
52653;BME280;39353;42.864;12.014;2023-07-31T01:50:43;97274.85;;;26.87;40.28
52653;BME280;39353;42.864;12.014;2023-07-31T01:53:11;97273.04;;;26.84;40.43
52653;BME280;39353;42.864;12.014;2023-07-31T01:55:39;97270.89;;;26.82;40.55
52653;BME280;39353;42.864;12.014;2023-07-31T01:58:20;97266.79;;;26.81;40.81
52653;BME280;39353;42.864;12.014;2023-07-31T02:01:01;97272.44;;;26.79;40.80
52653;BME280;39353;42.864;12.014;2023-07-31T02:03:42;97275.06;;;26.76;40.84
52653;BME280;39353;42.864;12.014;2023-07-31T02:06:09;97274.40;;;26.73;40.81
52653;BME280;39353;42.864;12.014;2023-07-31T02:08:50;97271.41;;;26.69;40.94
52653;BME280;39353;42.864;12.014;2023-07-31T02:11:31;97269.03;;;26.63;41.18
52653;BME280;39353;42.864;12.014;2023-07-31T02:13:58;97264.01;;;26.62;41.31
52653;BME280;39353;42.864;12.014;2023-07-31T02:16:40;97263.46;;;26.64;41.14
52653;BME280;39353;42.864;12.014;2023-07-31T02:19:24;97265.66;;;26.64;41.03
52653;BME280;39353;42.864;12.014;2023-07-31T02:22:05;97264.73;;;26.62;41.24
52653;BME280;39353;42.864;12.014;2023-07-31T02:24:32;97270.30;;;26.61;41.14
52653;BME280;39353;42.864;12.014;2023-07-31T02:27:13;97272.99;;;26.60;41.22
52653;BME280;39353;42.864;12.014;2023-07-31T02:29:40;97272.86;;;26.56;41.46
52653;BME280;39353;42.864;12.014;2023-07-31T02:32:21;97272.23;;;26.53;41.76
52653;BME280;39353;42.864;12.014;2023-07-31T02:34:50;97274.77;;;26.50;41.99
52653;BME280;39353;42.864;12.014;2023-07-31T02:37:31;97275.03;;;26.51;42.10
52653;BME280;39353;42.864;12.014;2023-07-31T02:40:00;97278.23;;;26.50;42.07
52653;BME280;39353;42.864;12.014;2023-07-31T02:42:29;97279.44;;;26.47;42.05
52653;BME280;39353;42.864;12.014;2023-07-31T02:44:56;97286.50;;;26.43;42.08
52653;BME280;39353;42.864;12.014;2023-07-31T02:47:23;97285.83;;;26.40;42.13
52653;BME280;39353;42.864;12.014;2023-07-31T02:50:05;97288.44;;;26.38;42.32
52653;BME280;39353;42.864;12.014;2023-07-31T02:52:46;97283.39;;;26.38;42.30
52653;BME280;39353;42.864;12.014;2023-07-31T02:55:27;97281.64;;;26.39;42.38
52653;BME280;39353;42.864;12.014;2023-07-31T02:57:54;97284.70;;;26.38;42.28
52653;BME280;39353;42.864;12.014;2023-07-31T03:00:21;97280.31;;;26.38;42.47
52653;BME280;39353;42.864;12.014;2023-07-31T03:02:49;97283.66;;;26.37;42.34
52653;BME280;39353;42.864;12.014;2023-07-31T03:05:17;97284.86;;;26.34;42.33
52653;BME280;39353;42.864;12.014;2023-07-31T03:07:57;97279.19;;;26.31;42.41
52653;BME280;39353;42.864;12.014;2023-07-31T03:10:39;97276.14;;;26.27;42.41
52653;BME280;39353;42.864;12.014;2023-07-31T03:13:21;97270.34;;;26.23;42.54
52653;BME280;39353;42.864;12.014;2023-07-31T03:15:50;97272.16;;;26.23;42.55
52653;BME280;39353;42.864;12.014;2023-07-31T03:18:31;97271.17;;;26.24;42.67
52653;BME280;39353;42.864;12.014;2023-07-31T03:20:57;97268.69;;;26.24;42.52
52653;BME280;39353;42.864;12.014;2023-07-31T03:23:38;97269.70;;;26.26;42.34
52653;BME280;39353;42.864;12.014;2023-07-31T03:26:07;97268.27;;;26.26;42.15
52653;BME280;39353;42.864;12.014;2023-07-31T03:28:48;97264.02;;;26.24;42.40
52653;BME280;39353;42.864;12.014;2023-07-31T03:31:30;97270.98;;;26.27;42.24
52653;BME280;39353;42.864;12.014;2023-07-31T03:33:57;97270.31;;;26.28;42.11
52653;BME280;39353;42.864;12.014;2023-07-31T03:36:24;97274.38;;;26.26;42.11
52653;BME280;39353;42.864;12.014;2023-07-31T03:39:06;97272.88;;;26.23;42.05
52653;BME280;39353;42.864;12.014;2023-07-31T03:41:34;97273.69;;;26.21;42.16
52653;BME280;39353;42.864;12.014;2023-07-31T03:44:16;97276.36;;;26.17;42.35
52653;BME280;39353;42.864;12.014;2023-07-31T03:46:57;97279.05;;;26.15;42.58
52653;BME280;39353;42.864;12.014;2023-07-31T03:49:24;97278.06;;;26.14;42.78
52653;BME280;39353;42.864;12.014;2023-07-31T03:51:51;97279.66;;;26.15;42.71
52653;BME280;39353;42.864;12.014;2023-07-31T03:54:19;97276.09;;;26.15;42.46
52653;BME280;39353;42.864;12.014;2023-07-31T03:57:00;97282.29;;;26.14;42.46
52653;BME280;39353;42.864;12.014;2023-07-31T03:59:41;97282.66;;;26.13;42.49
52653;BME280;39353;42.864;12.014;2023-07-31T04:02:22;97280.65;;;26.14;42.48
52653;BME280;39353;42.864;12.014;2023-07-31T04:05:03;97281.35;;;26.15;42.60
52653;BME280;39353;42.864;12.014;2023-07-31T04:07:46;97279.81;;;26.14;42.43
52653;BME280;39353;42.864;12.014;2023-07-31T04:10:30;97283.44;;;26.14;42.37
52653;BME280;39353;42.864;12.014;2023-07-31T04:13:12;97283.15;;;26.13;42.34
52653;BME280;39353;42.864;12.014;2023-07-31T04:15:53;97280.91;;;26.11;42.47
52653;BME280;39353;42.864;12.014;2023-07-31T04:18:34;97271.61;;;26.08;42.70
52653;BME280;39353;42.864;12.014;2023-07-31T04:21:02;97273.86;;;26.04;42.72
52653;BME280;39353;42.864;12.014;2023-07-31T04:23:29;97271.80;;;26.01;42.94
52653;BME280;39353;42.864;12.014;2023-07-31T04:25:56;97270.30;;;26.00;43.01
52653;BME280;39353;42.864;12.014;2023-07-31T04:28:37;97269.90;;;25.98;43.57
52653;BME280;39353;42.864;12.014;2023-07-31T04:31:05;97267.41;;;25.95;43.77
52653;BME280;39353;42.864;12.014;2023-07-31T04:33:32;97263.48;;;25.91;43.90
52653;BME280;39353;42.864;12.014;2023-07-31T04:35:59;97264.83;;;25.89;43.59
52653;BME280;39353;42.864;12.014;2023-07-31T04:38:26;97266.36;;;25.86;43.71
52653;BME280;39353;42.864;12.014;2023-07-31T04:40:55;97261.73;;;25.86;44.16
52653;BME280;39353;42.864;12.014;2023-07-31T04:43:36;97257.10;;;25.83;44.50
52653;BME280;39353;42.864;12.014;2023-07-31T04:46:05;97256.56;;;25.82;44.29
52653;BME280;39353;42.864;12.014;2023-07-31T04:51:33;97256.17;;;25.83;44.71
52653;BME280;39353;42.864;12.014;2023-07-31T04:54:01;97255.73;;;25.80;45.11
52653;BME280;39353;42.864;12.014;2023-07-31T04:56:28;97259.27;;;25.78;45.43
52653;BME280;39353;42.864;12.014;2023-07-31T04:59:09;97255.73;;;25.73;45.53
52653;BME280;39353;42.864;12.014;2023-07-31T05:01:37;97251.08;;;25.71;45.56
52653;BME280;39353;42.864;12.014;2023-07-31T05:04:17;97251.41;;;25.69;45.63
52653;BME280;39353;42.864;12.014;2023-07-31T05:06:44;97250.63;;;25.68;45.98
52653;BME280;39353;42.864;12.014;2023-07-31T05:09:12;97248.69;;;25.65;45.72
52653;BME280;39353;42.864;12.014;2023-07-31T05:11:54;97242.90;;;25.63;45.73
52653;BME280;39353;42.864;12.014;2023-07-31T05:14:35;97241.00;;;25.59;45.63
52653;BME280;39353;42.864;12.014;2023-07-31T05:17:16;97239.90;;;25.59;45.82
52653;BME280;39353;42.864;12.014;2023-07-31T05:19:57;97241.79;;;25.60;45.93
52653;BME280;39353;42.864;12.014;2023-07-31T05:22:39;97240.33;;;25.64;45.65
52653;BME280;39353;42.864;12.014;2023-07-31T05:25:08;97243.20;;;25.65;45.59
52653;BME280;39353;42.864;12.014;2023-07-31T05:27:35;97244.98;;;25.68;45.46
52653;BME280;39353;42.864;12.014;2023-07-31T05:30:16;97250.32;;;25.70;45.59
52653;BME280;39353;42.864;12.014;2023-07-31T05:32:58;97255.72;;;25.72;46.20
52653;BME280;39353;42.864;12.014;2023-07-31T05:35:38;97261.06;;;25.73;46.41
52653;BME280;39353;42.864;12.014;2023-07-31T05:38:20;97262.61;;;25.75;46.41
52653;BME280;39353;42.864;12.014;2023-07-31T05:40:47;97266.30;;;25.76;46.34
52653;BME280;39353;42.864;12.014;2023-07-31T05:43:28;97270.06;;;25.79;46.72
52653;BME280;39353;42.864;12.014;2023-07-31T05:45:55;97270.95;;;25.82;46.88
52653;BME280;39353;42.864;12.014;2023-07-31T05:48:36;97272.32;;;25.84;47.21
52653;BME280;39353;42.864;12.014;2023-07-31T05:51:05;97271.73;;;25.85;47.47
52653;BME280;39353;42.864;12.014;2023-07-31T05:53:47;97271.20;;;25.86;47.70
52653;BME280;39353;42.864;12.014;2023-07-31T05:56:16;97272.14;;;25.87;47.96
52653;BME280;39353;42.864;12.014;2023-07-31T05:58:43;97278.04;;;25.90;48.20
52653;BME280;39353;42.864;12.014;2023-07-31T06:01:13;97273.11;;;25.93;48.40
52653;BME280;39353;42.864;12.014;2023-07-31T06:03:55;97277.08;;;25.93;48.71
52653;BME280;39353;42.864;12.014;2023-07-31T06:06:22;97272.02;;;25.94;48.98
52653;BME280;39353;42.864;12.014;2023-07-31T06:08:49;97273.14;;;25.97;49.01
52653;BME280;39353;42.864;12.014;2023-07-31T06:11:34;97269.91;;;26.00;49.27
52653;BME280;39353;42.864;12.014;2023-07-31T06:14:01;97271.64;;;26.03;49.14
52653;BME280;39353;42.864;12.014;2023-07-31T06:16:43;97273.59;;;26.06;49.38
52653;BME280;39353;42.864;12.014;2023-07-31T06:19:25;97271.81;;;26.12;49.41
52653;BME280;39353;42.864;12.014;2023-07-31T06:21:53;97268.29;;;26.19;49.44
52653;BME280;39353;42.864;12.014;2023-07-31T06:24:36;97270.23;;;26.25;49.36
52653;BME280;39353;42.864;12.014;2023-07-31T06:27:03;97275.95;;;26.32;49.63
52653;BME280;39353;42.864;12.014;2023-07-31T06:29:44;97282.79;;;26.36;49.84
52653;BME280;39353;42.864;12.014;2023-07-31T06:32:25;97279.06;;;26.39;49.91
52653;BME280;39353;42.864;12.014;2023-07-31T06:34:53;97282.91;;;26.42;49.72
52653;BME280;39353;42.864;12.014;2023-07-31T06:37:35;97283.36;;;26.43;49.47
52653;BME280;39353;42.864;12.014;2023-07-31T06:40:17;97284.95;;;26.43;49.33
52653;BME280;39353;42.864;12.014;2023-07-31T06:42:46;97285.77;;;26.42;49.63
52653;BME280;39353;42.864;12.014;2023-07-31T06:45:27;97287.70;;;26.44;49.45
52653;BME280;39353;42.864;12.014;2023-07-31T06:47:54;97288.83;;;26.45;49.42
52653;BME280;39353;42.864;12.014;2023-07-31T06:50:35;97289.88;;;26.47;49.51
52653;BME280;39353;42.864;12.014;2023-07-31T06:53:16;97289.45;;;26.49;49.91
52653;BME280;39353;42.864;12.014;2023-07-31T06:55:44;97287.44;;;26.53;49.91
52653;BME280;39353;42.864;12.014;2023-07-31T06:58:26;97295.33;;;26.59;50.18
52653;BME280;39353;42.864;12.014;2023-07-31T07:01:08;97298.85;;;26.63;50.23
52653;BME280;39353;42.864;12.014;2023-07-31T07:03:35;97301.14;;;26.69;50.28
52653;BME280;39353;42.864;12.014;2023-07-31T07:06:02;97297.85;;;26.73;50.16
52653;BME280;39353;42.864;12.014;2023-07-31T07:08:43;97299.90;;;26.75;50.15
52653;BME280;39353;42.864;12.014;2023-07-31T07:11:24;97298.31;;;26.79;49.88
52653;BME280;39353;42.864;12.014;2023-07-31T07:13:52;97297.89;;;26.81;50.17
52653;BME280;39353;42.864;12.014;2023-07-31T07:16:19;97291.86;;;26.84;49.91
52653;BME280;39353;42.864;12.014;2023-07-31T07:18:46;97293.86;;;26.92;49.81
52653;BME280;39353;42.864;12.014;2023-07-31T07:21:14;97292.63;;;27.02;49.62
52653;BME280;39353;42.864;12.014;2023-07-31T07:23:56;97291.54;;;27.05;49.37
52653;BME280;39353;42.864;12.014;2023-07-31T07:26:37;97295.28;;;27.06;49.59
52653;BME280;39353;42.864;12.014;2023-07-31T07:29:04;97295.89;;;27.06;49.48
52653;BME280;39353;42.864;12.014;2023-07-31T07:31:35;97298.25;;;27.05;49.39
52653;BME280;39353;42.864;12.014;2023-07-31T07:34:03;97297.27;;;27.10;49.75
52653;BME280;39353;42.864;12.014;2023-07-31T07:36:31;97296.95;;;27.19;49.61
52653;BME280;39353;42.864;12.014;2023-07-31T07:38:59;97292.05;;;27.22;49.38
52653;BME280;39353;42.864;12.014;2023-07-31T07:41:40;97290.78;;;27.21;49.30
52653;BME280;39353;42.864;12.014;2023-07-31T07:44:08;97288.90;;;27.17;49.11
52653;BME280;39353;42.864;12.014;2023-07-31T07:46:49;97292.55;;;27.14;49.15
52653;BME280;39353;42.864;12.014;2023-07-31T07:49:16;97289.63;;;27.14;49.22
52653;BME280;39353;42.864;12.014;2023-07-31T07:51:43;97291.65;;;27.17;49.42
52653;BME280;39353;42.864;12.014;2023-07-31T07:54:10;97291.17;;;27.22;49.28
52653;BME280;39353;42.864;12.014;2023-07-31T07:56:52;97294.20;;;27.29;49.37
52653;BME280;39353;42.864;12.014;2023-07-31T07:59:33;97291.74;;;27.33;49.39
52653;BME280;39353;42.864;12.014;2023-07-31T08:02:14;97281.06;;;27.36;49.21
52653;BME280;39353;42.864;12.014;2023-07-31T08:04:55;97279.41;;;27.38;49.03
52653;BME280;39353;42.864;12.014;2023-07-31T08:07:37;97275.77;;;27.37;48.96
52653;BME280;39353;42.864;12.014;2023-07-31T08:10:05;97274.39;;;27.39;48.67
52653;BME280;39353;42.864;12.014;2023-07-31T08:12:46;97274.56;;;27.41;48.60
52653;BME280;39353;42.864;12.014;2023-07-31T08:15:28;97278.95;;;27.44;48.46
52653;BME280;39353;42.864;12.014;2023-07-31T08:18:10;97276.45;;;27.49;48.52
52653;BME280;39353;42.864;12.014;2023-07-31T08:20:52;97278.40;;;27.51;48.25
52653;BME280;39353;42.864;12.014;2023-07-31T08:23:19;97277.40;;;27.54;48.20
52653;BME280;39353;42.864;12.014;2023-07-31T08:26:01;97276.13;;;27.64;48.22
52653;BME280;39353;42.864;12.014;2023-07-31T08:28:29;97276.17;;;27.67;48.15
52653;BME280;39353;42.864;12.014;2023-07-31T08:31:10;97277.05;;;27.68;48.03
52653;BME280;39353;42.864;12.014;2023-07-31T08:33:39;97272.36;;;27.70;47.92
52653;BME280;39353;42.864;12.014;2023-07-31T08:36:21;97268.45;;;27.73;47.68
52653;BME280;39353;42.864;12.014;2023-07-31T08:39:02;97264.64;;;27.74;47.42
52653;BME280;39353;42.864;12.014;2023-07-31T08:41:44;97268.16;;;27.75;47.78
52653;BME280;39353;42.864;12.014;2023-07-31T08:44:12;97269.34;;;27.81;48.19
52653;BME280;39353;42.864;12.014;2023-07-31T08:46:41;97273.19;;;27.86;48.29
52653;BME280;39353;42.864;12.014;2023-07-31T08:49:23;97277.25;;;27.91;48.31
52653;BME280;39353;42.864;12.014;2023-07-31T08:52:04;97275.60;;;27.96;48.40
52653;BME280;39353;42.864;12.014;2023-07-31T08:54:33;97272.33;;;28.01;48.28
52653;BME280;39353;42.864;12.014;2023-07-31T08:57:01;97269.84;;;28.05;48.16
52653;BME280;39353;42.864;12.014;2023-07-31T08:59:31;97277.61;;;28.05;48.03
52653;BME280;39353;42.864;12.014;2023-07-31T09:02:05;97271.31;;;28.09;48.32
52653;BME280;39353;42.864;12.014;2023-07-31T09:04:47;97276.69;;;28.11;48.33
52653;BME280;39353;42.864;12.014;2023-07-31T09:07:31;97280.38;;;28.18;48.22
52653;BME280;39353;42.864;12.014;2023-07-31T09:10:14;97278.75;;;28.23;47.75
52653;BME280;39353;42.864;12.014;2023-07-31T09:12:41;97277.80;;;28.28;47.93
52653;BME280;39353;42.864;12.014;2023-07-31T09:15:24;97270.35;;;28.29;47.04
52653;BME280;39353;42.864;12.014;2023-07-31T09:18:00;97272.17;;;28.31;46.95
52653;BME280;39353;42.864;12.014;2023-07-31T09:20:28;97271.18;;;28.31;46.94
52653;BME280;39353;42.864;12.014;2023-07-31T09:23:08;97269.91;;;28.32;47.00
52653;BME280;39353;42.864;12.014;2023-07-31T09:25:49;97269.61;;;28.33;47.00
52653;BME280;39353;42.864;12.014;2023-07-31T09:28:31;97265.54;;;28.34;46.98
52653;BME280;39353;42.864;12.014;2023-07-31T09:30:59;97264.59;;;28.34;46.89
52653;BME280;39353;42.864;12.014;2023-07-31T09:33:25;97262.77;;;28.35;46.98
52653;BME280;39353;42.864;12.014;2023-07-31T09:36:09;97267.07;;;28.37;47.04
52653;BME280;39353;42.864;12.014;2023-07-31T09:38:50;97265.14;;;28.39;47.13
52653;BME280;39353;42.864;12.014;2023-07-31T09:41:20;97262.98;;;28.41;47.12
52653;BME280;39353;42.864;12.014;2023-07-31T09:44:03;97263.91;;;28.43;47.31
52653;BME280;39353;42.864;12.014;2023-07-31T09:46:30;97263.02;;;28.46;47.36
52653;BME280;39353;42.864;12.014;2023-07-31T09:49:05;97262.66;;;28.50;47.37
52653;BME280;39353;42.864;12.014;2023-07-31T09:51:46;97265.52;;;28.52;47.18
52653;BME280;39353;42.864;12.014;2023-07-31T09:54:27;97262.10;;;28.52;47.15
52653;BME280;39353;42.864;12.014;2023-07-31T09:56:59;97260.23;;;28.51;47.04
52653;BME280;39353;42.864;12.014;2023-07-31T09:59:41;97260.34;;;28.50;47.02
52653;BME280;39353;42.864;12.014;2023-07-31T10:02:15;97259.45;;;28.50;47.10
52653;BME280;39353;42.864;12.014;2023-07-31T10:05:03;97261.29;;;28.47;46.93
52653;BME280;39353;42.864;12.014;2023-07-31T10:07:37;97261.97;;;28.44;46.92
52653;BME280;39353;42.864;12.014;2023-07-31T10:10:21;97262.75;;;28.42;46.80
52653;BME280;39353;42.864;12.014;2023-07-31T10:13:04;97254.31;;;28.40;46.83
52653;BME280;39353;42.864;12.014;2023-07-31T10:15:47;97251.73;;;28.39;46.74
52653;BME280;39353;42.864;12.014;2023-07-31T10:18:14;97249.57;;;28.39;46.67
52653;BME280;39353;42.864;12.014;2023-07-31T10:20:44;97242.50;;;28.40;46.79
52653;BME280;39353;42.864;12.014;2023-07-31T10:23:12;97245.59;;;28.41;46.81
52653;BME280;39353;42.864;12.014;2023-07-31T10:25:57;97238.80;;;28.44;46.89
52653;BME280;39353;42.864;12.014;2023-07-31T10:28:26;97236.08;;;28.43;47.20
52653;BME280;39353;42.864;12.014;2023-07-31T10:31:08;97233.55;;;28.43;47.10
52653;BME280;39353;42.864;12.014;2023-07-31T10:33:52;97237.52;;;28.46;47.13
52653;BME280;39353;42.864;12.014;2023-07-31T10:36:20;97237.38;;;28.49;46.92
52653;BME280;39353;42.864;12.014;2023-07-31T10:38:49;97238.41;;;28.50;46.87
52653;BME280;39353;42.864;12.014;2023-07-31T10:41:31;97237.16;;;28.49;47.05
52653;BME280;39353;42.864;12.014;2023-07-31T10:44:00;97238.04;;;28.50;46.89
52653;BME280;39353;42.864;12.014;2023-07-31T10:46:29;97237.54;;;28.48;46.71
52653;BME280;39353;42.864;12.014;2023-07-31T10:49:02;97233.37;;;28.47;46.73
52653;BME280;39353;42.864;12.014;2023-07-31T10:51:43;97233.08;;;28.50;46.60
52653;BME280;39353;42.864;12.014;2023-07-31T10:54:15;97233.56;;;28.51;46.49
52653;BME280;39353;42.864;12.014;2023-07-31T10:56:46;97231.79;;;28.53;46.23
52653;BME280;39353;42.864;12.014;2023-07-31T10:59:15;97231.64;;;28.60;45.94
52653;BME280;39353;42.864;12.014;2023-07-31T11:01:55;97234.52;;;28.62;46.02
52653;BME280;39353;42.864;12.014;2023-07-31T11:04:29;97234.20;;;28.68;46.03
52653;BME280;39353;42.864;12.014;2023-07-31T11:07:11;97232.38;;;28.70;46.11
52653;BME280;39353;42.864;12.014;2023-07-31T11:09:54;97232.76;;;28.72;45.84
52653;BME280;39353;42.864;12.014;2023-07-31T11:12:35;97234.08;;;28.74;45.66
52653;BME280;39353;42.864;12.014;2023-07-31T11:15:16;97233.34;;;28.77;45.68
52653;BME280;39353;42.864;12.014;2023-07-31T11:18:04;97230.11;;;28.85;46.30
52653;BME280;39353;42.864;12.014;2023-07-31T11:20:46;97227.79;;;28.85;46.10
52653;BME280;39353;42.864;12.014;2023-07-31T11:23:16;97225.34;;;28.88;46.32
52653;BME280;39353;42.864;12.014;2023-07-31T11:25:44;97222.91;;;28.87;45.94
52653;BME280;39353;42.864;12.014;2023-07-31T11:28:14;97217.27;;;28.88;45.69
52653;BME280;39353;42.864;12.014;2023-07-31T11:30:43;97212.52;;;28.87;45.26
52653;BME280;39353;42.864;12.014;2023-07-31T11:33:12;97212.16;;;28.93;43.64
52653;BME280;39353;42.864;12.014;2023-07-31T11:35:53;97213.90;;;28.98;43.33
52653;BME280;39353;42.864;12.014;2023-07-31T11:38:34;97210.32;;;29.02;42.78
52653;BME280;39353;42.864;12.014;2023-07-31T11:41:03;97204.28;;;29.04;41.96
52653;BME280;39353;42.864;12.014;2023-07-31T11:43:32;97198.54;;;28.98;40.98
52653;BME280;39353;42.864;12.014;2023-07-31T11:46:14;97196.53;;;28.93;40.62
52653;BME280;39353;42.864;12.014;2023-07-31T11:48:42;97193.31;;;28.96;40.96
52653;BME280;39353;42.864;12.014;2023-07-31T11:51:24;97192.77;;;28.96;40.63
52653;BME280;39353;42.864;12.014;2023-07-31T11:54:06;97187.86;;;28.99;39.63
52653;BME280;39353;42.864;12.014;2023-07-31T11:56:33;97185.24;;;29.01;39.11
52653;BME280;39353;42.864;12.014;2023-07-31T11:59:15;97179.61;;;29.01;39.39
52653;BME280;39353;42.864;12.014;2023-07-31T12:01:57;97178.48;;;28.99;39.61
52653;BME280;39353;42.864;12.014;2023-07-31T12:04:24;97179.05;;;28.98;39.78
52653;BME280;39353;42.864;12.014;2023-07-31T12:07:06;97176.88;;;28.99;40.04
52653;BME280;39353;42.864;12.014;2023-07-31T12:09:33;97171.64;;;29.03;40.39
52653;BME280;39353;42.864;12.014;2023-07-31T12:12:20;97170.86;;;29.07;40.98
52653;BME280;39353;42.864;12.014;2023-07-31T12:14:48;97171.84;;;29.07;41.47
52653;BME280;39353;42.864;12.014;2023-07-31T12:17:31;97175.14;;;29.09;41.99
52653;BME280;39353;42.864;12.014;2023-07-31T12:20:12;97168.63;;;29.15;41.85
52653;BME280;39353;42.864;12.014;2023-07-31T12:22:56;97166.42;;;29.16;41.37
52653;BME280;39353;42.864;12.014;2023-07-31T12:25:38;97170.02;;;29.13;41.44
52653;BME280;39353;42.864;12.014;2023-07-31T12:28:06;97164.25;;;29.17;41.35
52653;BME280;39353;42.864;12.014;2023-07-31T12:30:40;97162.24;;;29.25;41.18
52653;BME280;39353;42.864;12.014;2023-07-31T12:33:14;97158.38;;;29.25;41.28
52653;BME280;39353;42.864;12.014;2023-07-31T12:35:46;97157.62;;;29.28;41.26
52653;BME280;39353;42.864;12.014;2023-07-31T12:38:14;97153.96;;;29.29;41.05
52653;BME280;39353;42.864;12.014;2023-07-31T12:40:42;97155.59;;;29.27;41.31
52653;BME280;39353;42.864;12.014;2023-07-31T12:43:09;97151.81;;;29.24;41.22
52653;BME280;39353;42.864;12.014;2023-07-31T12:45:36;97143.48;;;29.22;41.38
52653;BME280;39353;42.864;12.014;2023-07-31T12:48:04;97144.66;;;29.21;40.86
52653;BME280;39353;42.864;12.014;2023-07-31T12:50:31;97140.48;;;29.19;40.81
52653;BME280;39353;42.864;12.014;2023-07-31T12:53:12;97136.08;;;29.23;40.88
52653;BME280;39353;42.864;12.014;2023-07-31T12:55:55;97128.13;;;29.22;41.47
52653;BME280;39353;42.864;12.014;2023-07-31T12:58:23;97129.92;;;29.17;41.85
52653;BME280;39353;42.864;12.014;2023-07-31T13:01:04;97124.14;;;29.16;41.97
52653;BME280;39353;42.864;12.014;2023-07-31T13:03:32;97131.30;;;29.19;41.81
52653;BME280;39353;42.864;12.014;2023-07-31T13:06:01;97130.05;;;29.17;41.85
52653;BME280;39353;42.864;12.014;2023-07-31T13:08:28;97129.84;;;29.21;41.98
52653;BME280;39353;42.864;12.014;2023-07-31T13:11:09;97127.14;;;29.21;42.12
52653;BME280;39353;42.864;12.014;2023-07-31T13:13:50;97126.52;;;29.23;42.01
52653;BME280;39353;42.864;12.014;2023-07-31T13:16:18;97126.64;;;29.26;41.89
52653;BME280;39353;42.864;12.014;2023-07-31T13:18:45;97124.58;;;29.30;41.69
52653;BME280;39353;42.864;12.014;2023-07-31T13:21:26;97125.63;;;29.35;41.46
52653;BME280;39353;42.864;12.014;2023-07-31T13:23:54;97119.17;;;29.32;41.43
52653;BME280;39353;42.864;12.014;2023-07-31T13:26:21;97119.45;;;29.34;40.95
52653;BME280;39353;42.864;12.014;2023-07-31T13:28:48;97117.11;;;29.36;40.41
52653;BME280;39353;42.864;12.014;2023-07-31T13:31:16;97113.41;;;29.35;40.26
52653;BME280;39353;42.864;12.014;2023-07-31T13:33:44;97114.09;;;29.33;40.03
52653;BME280;39353;42.864;12.014;2023-07-31T13:36:25;97110.70;;;29.33;39.71
52653;BME280;39353;42.864;12.014;2023-07-31T13:39:06;97105.02;;;29.38;39.57
52653;BME280;39353;42.864;12.014;2023-07-31T13:41:34;97098.98;;;29.38;39.24
52653;BME280;39353;42.864;12.014;2023-07-31T13:44:15;97097.55;;;29.43;38.83